createdAt,value
2023-04-18T00:02:01.084Z,100862.27
2023-04-18T00:04:06.693Z,100869.54
2023-04-18T00:06:12.379Z,100869.27
2023-04-18T00:08:17.500Z,100863.8
2023-04-18T00:10:22.613Z,100870.14
2023-04-18T00:12:27.727Z,100864.41
2023-04-18T00:14:32.752Z,100863.89
2023-04-18T00:16:37.983Z,100862.16
2023-04-18T00:18:43.211Z,100865.41
2023-04-18T00:20:48.251Z,100864.45
2023-04-18T00:22:53.307Z,100864.77
2023-04-18T00:24:58.337Z,100873.09
2023-04-18T00:27:03.457Z,100866.35
2023-04-18T00:29:08.503Z,100862.13
2023-04-18T00:31:13.658Z,100863.69
2023-04-18T00:33:18.843Z,100863.8
2023-04-18T00:35:23.887Z,100865.03
2023-04-18T00:37:28.902Z,100860.63
2023-04-18T00:39:33.960Z,100862.31
2023-04-18T00:41:38.970Z,100860.95
2023-04-18T00:43:43.989Z,100857.67
2023-04-18T00:45:49.158Z,100859.63
2023-04-18T00:47:54.355Z,100858.44
2023-04-18T00:49:59.613Z,100852.7
2023-04-18T00:52:04.733Z,100855.44
2023-04-18T00:54:09.763Z,100860.05
2023-04-18T00:56:14.992Z,100850.89
2023-04-18T00:58:20.098Z,100856.34
2023-04-18T01:00:25.112Z,100850.02
2023-04-18T01:02:30.340Z,100850.83
2023-04-18T01:04:35.993Z,100852.12
2023-04-18T01:06:41.311Z,100853.79
2023-04-18T01:08:46.313Z,100850.52
2023-04-18T01:10:51.369Z,100849.8
2023-04-18T01:12:56.363Z,100849.39
2023-04-18T01:15:01.405Z,100850.25
2023-04-18T01:17:06.500Z,100854.02
2023-04-18T01:19:11.574Z,100849.39
2023-04-18T01:24:05.917Z,100849.88
2023-04-18T01:26:10.981Z,100852.19
2023-04-18T01:28:16.148Z,100854.41
2023-04-18T01:30:21.168Z,100853.45
2023-04-18T01:32:26.302Z,100855.13
2023-04-18T01:34:31.508Z,100851.84
2023-04-18T01:36:36.556Z,100853.89
2023-04-18T01:38:41.616Z,100849.48
2023-04-18T01:40:46.696Z,100855.23
2023-04-18T01:42:51.732Z,100850.64
2023-04-18T01:44:56.788Z,100850.55
2023-04-18T01:47:01.950Z,100851.53
2023-04-18T01:49:07.132Z,100854.48
2023-04-18T01:51:12.149Z,100850.14
2023-04-18T01:53:17.157Z,100850.55
2023-04-18T01:55:22.254Z,100852.16
2023-04-18T01:57:27.278Z,100851.38
2023-04-18T01:59:32.408Z,100851.25
2023-04-18T02:01:37.454Z,100851.42
2023-04-18T02:03:43.028Z,100848.9
2023-04-18T02:05:48.428Z,100849.06
2023-04-18T02:07:53.444Z,100848.08
2023-04-18T02:09:58.839Z,100845.89
2023-04-18T02:12:04.062Z,100850.58
2023-04-18T02:14:09.166Z,100852.59
2023-04-18T02:16:14.338Z,100850.34
2023-04-18T02:18:19.527Z,100847.67
2023-04-18T02:20:24.547Z,100852.4
2023-04-18T02:22:29.600Z,100849.84
2023-04-18T02:24:34.644Z,100850.59
2023-04-18T02:26:39.648Z,100849.3
2023-04-18T02:28:44.669Z,100849.61
2023-04-18T02:30:49.669Z,100851.02
2023-04-18T02:32:54.879Z,100848.96
2023-04-18T02:35:00.045Z,100849.03
2023-04-18T02:37:05.533Z,100848.38
2023-04-18T02:39:10.600Z,100849.58
2023-04-18T02:41:15.630Z,100850.3
2023-04-18T02:43:20.685Z,100850.34
2023-04-18T02:45:25.736Z,100853.91
2023-04-18T02:47:43.705Z,100850.98
2023-04-18T02:50:00.494Z,100847.95
2023-04-18T02:52:05.639Z,100847.05
2023-04-18T02:54:10.777Z,100848.46
2023-04-18T02:56:16.079Z,100848.42
2023-04-18T02:58:21.108Z,100849.66
2023-04-18T03:00:26.153Z,100850.92
2023-04-18T03:02:31.331Z,100851.3
2023-04-18T03:04:36.710Z,100856.05
2023-04-18T03:06:41.837Z,100855.68
2023-04-18T03:08:46.948Z,100853.02
2023-04-18T03:10:52.014Z,100854.04
2023-04-18T03:12:58.584Z,100858.11
2023-04-18T03:15:03.560Z,100855.34
2023-04-18T03:17:08.580Z,100853.77
2023-04-18T03:19:13.579Z,100848.75
2023-04-18T03:21:18.643Z,100850.73
2023-04-18T03:23:23.683Z,100850.84
2023-04-18T03:25:28.737Z,100847.56
2023-04-18T03:27:38.069Z,100845.9
2023-04-18T03:29:43.120Z,100845.73
2023-04-18T03:31:48.252Z,100844.57
2023-04-18T03:33:53.344Z,100846.23
2023-04-18T03:35:58.382Z,100844.53
2023-04-18T03:38:03.585Z,100848.33
2023-04-18T03:40:08.646Z,100844.44
2023-04-18T03:42:13.661Z,100849.59
2023-04-18T03:44:18.743Z,100851.84
2023-04-18T03:46:24.034Z,100846.97
2023-04-18T03:48:29.162Z,100849.73
2023-04-18T03:50:34.192Z,100847.55
2023-04-18T03:52:39.241Z,100849.36
2023-04-18T03:54:44.312Z,100850.32
2023-04-18T03:56:49.340Z,100848.23
2023-04-18T03:58:54.429Z,100850.89
2023-04-18T04:00:59.470Z,100852.47
2023-04-18T04:03:05.079Z,100847.25
2023-04-18T04:05:10.640Z,100856.05
2023-04-18T04:07:15.833Z,100857.05
2023-04-18T04:09:20.892Z,100855.58
2023-04-18T04:11:26.013Z,100850.77
2023-04-18T04:13:31.088Z,100858.21
2023-04-18T04:15:36.120Z,100856.88
2023-04-18T04:17:41.200Z,100859.86
2023-04-18T04:19:46.306Z,100859.48
2023-04-18T04:21:51.351Z,100864.73
2023-04-18T04:23:56.402Z,100867.86
2023-04-18T04:26:01.444Z,100867.25
2023-04-18T04:28:06.498Z,100867.57
2023-04-18T04:30:14.456Z,100865.67
2023-04-18T04:32:19.600Z,100869.08
2023-04-18T04:34:24.666Z,100869.47
2023-04-18T04:36:29.718Z,100869.69
2023-04-18T04:38:34.758Z,100868.63
2023-04-18T04:40:39.782Z,100878.67
2023-04-18T04:42:44.853Z,100878.42
2023-04-18T04:44:50.123Z,100883.34
2023-04-18T04:46:55.188Z,100887.06
2023-04-18T04:49:00.230Z,100886.15
2023-04-18T04:51:05.383Z,100887.8
2023-04-18T04:53:10.480Z,100889.34
2023-04-18T04:55:15.635Z,100887.98
2023-04-18T04:57:20.667Z,100887.45
2023-04-18T04:59:25.705Z,100883.82
2023-04-18T05:01:30.837Z,100883.72
2023-04-18T05:03:36.517Z,100884.97
2023-04-18T05:05:42.083Z,100886.76
2023-04-18T05:07:47.111Z,100886.7
2023-04-18T05:09:52.179Z,100888.22
2023-04-18T05:11:57.240Z,100896.81
2023-04-18T05:14:02.229Z,100888.53
2023-04-18T05:16:07.365Z,100890.59
2023-04-18T05:18:12.388Z,100889.58
2023-04-18T05:20:17.432Z,100886.56
2023-04-18T05:22:22.454Z,100886.73
2023-04-18T05:24:27.750Z,100889.53
2023-04-18T05:26:32.817Z,100894.14
2023-04-18T05:28:37.829Z,100893.95
2023-04-18T05:30:42.982Z,100894.25
2023-04-18T05:32:48.189Z,100894.48
2023-04-18T05:34:53.366Z,100891.59
2023-04-18T05:36:58.438Z,100898.05
2023-04-18T05:39:03.639Z,100895.36
2023-04-18T05:41:08.698Z,100901.4
2023-04-18T05:43:13.713Z,100899.59
2023-04-18T05:45:18.793Z,100904.59
2023-04-18T05:47:23.960Z,100901.55
2023-04-18T05:49:29.079Z,100901.08
2023-04-18T05:51:34.111Z,100903.74
2023-04-18T05:53:39.162Z,100899.97
2023-04-18T05:55:44.178Z,100899.37
2023-04-18T05:57:49.203Z,100905.27
2023-04-18T05:59:54.269Z,100902.75
2023-04-18T06:01:59.840Z,100901.61
2023-04-18T06:04:05.354Z,100908.22
2023-04-18T06:06:10.772Z,100907.03
2023-04-18T06:08:16.004Z,100911.48
2023-04-18T06:10:21.062Z,100915.3
2023-04-18T06:12:26.119Z,100911.27
2023-04-18T06:14:31.447Z,100912.33
2023-04-18T06:16:36.618Z,100912.61
2023-04-18T06:18:42.096Z,100914.44
2023-04-18T06:20:47.176Z,100918.91
2023-04-18T06:22:52.267Z,100919.53
2023-04-18T06:24:57.391Z,100921.94
2023-04-18T06:27:02.489Z,100918.95
2023-04-18T06:29:07.551Z,100924.92
2023-04-18T06:31:12.632Z,100925
2023-04-18T06:33:17.807Z,100926.84
2023-04-18T06:35:24.135Z,100924.55
2023-04-18T06:37:30.722Z,100931.23
2023-04-18T06:39:35.729Z,100930.88
2023-04-18T06:41:40.788Z,100929.7
2023-04-18T06:44:04.602Z,100934
2023-04-18T06:46:09.935Z,100936
2023-04-18T06:48:15.079Z,100934.67
2023-04-18T06:50:20.148Z,100937.55
2023-04-18T06:52:25.154Z,100942.24
2023-04-18T06:54:30.156Z,100940.47
2023-04-18T06:56:37.627Z,100942.27
2023-04-18T06:58:42.630Z,100942.45
2023-04-18T07:00:47.920Z,100943.63
2023-04-18T07:02:53.524Z,100941.05
2023-04-18T07:04:58.895Z,100944.43
2023-04-18T07:07:04.087Z,100949.05
2023-04-18T07:09:09.243Z,100947.17
2023-04-18T07:11:14.298Z,100950.59
2023-04-18T07:13:19.395Z,100952.68
2023-04-18T07:15:24.502Z,100955.12
2023-04-18T07:17:29.658Z,100961.17
2023-04-18T07:19:34.735Z,100963.06
2023-04-18T07:21:39.757Z,100958.66
2023-04-18T07:23:44.788Z,100961.08
2023-04-18T07:25:49.819Z,100963.35
2023-04-18T07:27:54.913Z,100960.21
2023-04-18T07:30:00.039Z,100963.18
2023-04-18T07:32:08.435Z,100962.63
2023-04-18T07:34:14.388Z,100964.38
2023-04-18T07:36:19.973Z,100969.19
2023-04-18T07:38:25.020Z,100966.55
2023-04-18T07:40:30.205Z,100963.26
2023-04-18T07:42:35.309Z,100964.94
2023-04-18T07:44:40.305Z,100967.75
2023-04-18T07:46:45.548Z,100975.89
2023-04-18T07:48:51.034Z,100974.36
2023-04-18T07:50:56.069Z,100975.34
2023-04-18T07:53:01.142Z,100974.36
2023-04-18T07:55:06.141Z,100975.86
2023-04-18T07:57:11.385Z,100979.55
2023-04-18T07:59:17.025Z,100982.05
2023-04-18T08:01:22.268Z,100981.44
2023-04-18T08:03:27.767Z,100985.91
2023-04-18T08:05:33.521Z,100986
2023-04-18T08:07:38.903Z,100987.17
2023-04-18T08:09:44.187Z,100986.77
2023-04-18T08:11:49.245Z,100986.17
2023-04-18T08:13:54.393Z,100990.94
2023-04-18T08:15:59.570Z,100991.42
2023-04-18T08:18:04.908Z,100992.14
2023-04-18T08:20:10.096Z,100989.21
2023-04-18T08:22:15.169Z,100989
2023-04-18T08:24:20.247Z,100992.2
2023-04-18T08:26:25.390Z,100991.94
2023-04-18T08:28:30.540Z,100995.84
2023-04-18T08:30:35.784Z,100997.22
2023-04-18T08:32:41.109Z,100996.72
2023-04-18T08:34:46.231Z,100998.16
2023-04-18T08:36:51.223Z,100995.41
2023-04-18T08:38:56.283Z,100999.81
2023-04-18T08:41:01.351Z,101000.28
2023-04-18T08:43:06.447Z,101002.89
2023-04-18T08:45:11.514Z,101007.44
2023-04-18T08:47:16.613Z,101004.13
2023-04-18T08:49:21.690Z,101008.09
2023-04-18T08:51:26.758Z,101008.33
2023-04-18T08:53:31.872Z,101011.58
2023-04-18T08:55:36.952Z,101012.64
2023-04-18T08:57:42.134Z,101014.01
2023-04-18T08:59:51.060Z,101009.52
2023-04-18T09:01:56.316Z,101016.41
2023-04-18T09:04:01.693Z,101016.27
2023-04-18T09:06:06.936Z,101012
2023-04-18T09:08:12.072Z,101014.53
2023-04-18T09:10:17.144Z,101014.08
2023-04-18T09:12:22.146Z,101015.57
2023-04-18T09:14:27.314Z,101007.83
2023-04-18T09:16:32.608Z,101011.41
2023-04-18T09:18:37.701Z,101011.58
2023-04-18T09:20:42.877Z,101009.73
2023-04-18T09:22:48.010Z,101008.7
2023-04-18T09:24:53.072Z,101009.24
2023-04-18T09:26:58.353Z,101008.69
2023-04-18T09:29:03.400Z,101010.47
2023-04-18T09:31:08.637Z,101007.58
2023-04-18T09:33:13.840Z,101011.47
2023-04-18T09:35:19.077Z,101007.33
2023-04-18T09:37:24.166Z,101013.41
2023-04-18T09:39:29.290Z,101007.27
2023-04-18T09:41:34.324Z,101009.51
2023-04-18T09:43:39.381Z,101009.16
2023-04-18T09:45:44.571Z,101013.35
2023-04-18T09:47:49.820Z,101012.89
2023-04-18T09:49:55.037Z,101015.03
2023-04-18T09:52:00.139Z,101015.05
2023-04-18T09:54:05.230Z,101015.56
2023-04-18T09:56:10.413Z,101019.3
2023-04-18T09:58:15.550Z,101016.68
2023-04-18T10:00:20.662Z,101015.27
2023-04-18T10:02:25.984Z,101015.11
2023-04-18T10:04:31.514Z,101014.02
2023-04-18T10:06:36.886Z,101014.88
2023-04-18T10:08:41.956Z,101014.72
2023-04-18T10:10:47.071Z,101013.34
2023-04-18T10:12:52.202Z,101010
2023-04-18T10:14:57.376Z,101014.86
2023-04-18T10:17:02.418Z,101013.27
2023-04-18T10:19:07.474Z,101017.95
2023-04-18T10:21:12.568Z,101015.8
2023-04-18T10:23:17.614Z,101011.78
2023-04-18T10:25:22.775Z,101012.19
2023-04-18T10:27:27.884Z,101006.97
2023-04-18T10:29:33.046Z,101008.63
2023-04-18T10:31:38.271Z,101007.41
2023-04-18T10:33:46.908Z,100999.53
2023-04-18T10:36:04.609Z,101005.3
2023-04-18T10:38:09.644Z,101002.55
2023-04-18T10:40:14.725Z,100999.25
2023-04-18T10:42:19.769Z,101003.33
2023-04-18T10:44:25.376Z,101005.98
2023-04-18T10:46:33.502Z,101004.27
2023-04-18T10:48:39.939Z,101003.9
2023-04-18T10:50:45.009Z,100998.8
2023-04-18T10:52:50.099Z,101003.88
2023-04-18T10:54:56.451Z,101005.07
2023-04-18T10:57:03.256Z,101000.41
2023-04-18T10:59:08.364Z,101001.66
2023-04-18T11:01:13.643Z,100994.73
2023-04-18T11:03:19.085Z,100995.59
2023-04-18T11:05:24.384Z,100997.53
2023-04-18T11:07:31.255Z,100993.7
2023-04-18T11:09:36.297Z,100998.52
2023-04-18T11:11:41.664Z,100995.7
2023-04-18T11:13:46.864Z,100990.78
2023-04-18T11:15:52.420Z,100988.53
2023-04-18T11:17:57.658Z,100988.67
2023-04-18T11:20:02.983Z,100991.58
2023-04-18T11:22:08.343Z,100986.14
2023-04-18T11:24:13.947Z,100984.63
2023-04-18T11:26:19.416Z,100982.98
2023-04-18T11:28:24.514Z,100982.95
2023-04-18T11:30:29.659Z,100987.4
2023-04-18T11:32:35.072Z,100980.11
2023-04-18T11:34:40.386Z,100982.27
2023-04-18T11:36:45.581Z,100980.58
2023-04-18T11:38:50.795Z,100984.93
2023-04-18T11:40:55.953Z,100988.23
2023-04-18T11:43:01.114Z,100988.86
2023-04-18T11:45:06.301Z,100988.64
2023-04-18T11:47:11.436Z,100988.73
2023-04-18T11:49:16.525Z,100990.73
2023-04-18T11:51:21.584Z,100988.02
2023-04-18T11:53:26.792Z,100982.81
2023-04-18T11:55:31.812Z,100983.85
2023-04-18T11:57:36.879Z,100982.98
2023-04-18T11:59:41.928Z,100987.03
2023-04-18T12:01:47.107Z,100984.23
2023-04-18T12:03:52.734Z,100988.28
2023-04-18T12:05:58.621Z,100977.04
2023-04-18T12:08:03.975Z,100987.27
2023-04-18T12:10:09.136Z,100979.17
2023-04-18T12:12:14.249Z,100986.49
2023-04-18T12:14:19.280Z,100982.86
2023-04-18T12:16:24.429Z,100986.38
2023-04-18T12:18:29.662Z,100983.9
2023-04-18T12:20:34.720Z,100985.02
2023-04-18T12:22:39.856Z,100983.34
2023-04-18T12:24:44.926Z,100986.09
2023-04-18T12:26:50.004Z,100983.02
2023-04-18T12:28:55.126Z,100982.06
2023-04-18T12:31:00.500Z,100983.66
2023-04-18T12:33:05.820Z,100986.05
2023-04-18T12:35:11.056Z,100981.57
2023-04-18T12:37:16.252Z,100973.66
2023-04-18T12:39:21.358Z,100981.59
2023-04-18T12:41:26.541Z,100978.73
2023-04-18T12:43:31.580Z,100982.2
2023-04-18T12:45:36.713Z,100985.22
2023-04-18T12:47:41.894Z,100981.3
2023-04-18T12:49:47.111Z,100980.84
2023-04-18T12:51:52.185Z,100978.65
2023-04-18T12:53:57.271Z,100984.11
2023-04-18T12:56:02.357Z,100982.23
2023-04-18T12:58:07.447Z,100980.63
2023-04-18T13:00:12.761Z,100984.56
2023-04-18T13:02:18.230Z,100984.64
2023-04-18T13:04:23.987Z,100973.88
2023-04-18T13:06:29.575Z,100974.05
2023-04-18T13:08:34.731Z,100976.29
2023-04-18T13:10:39.823Z,100973.46
2023-04-18T13:12:44.945Z,100966.67
2023-04-18T13:14:50.017Z,100967.35
2023-04-18T13:16:55.141Z,100962.67
2023-04-18T13:19:00.365Z,100965.36
2023-04-18T13:21:05.442Z,100970.11
2023-04-18T13:23:10.645Z,100966.08
2023-04-18T13:25:15.716Z,100969.36
2023-04-18T13:27:20.920Z,100968.17
2023-04-18T13:29:26.053Z,100963.96
2023-04-18T13:31:31.452Z,100963.2
2023-04-18T13:33:36.807Z,100967.7
2023-04-18T13:35:41.879Z,100973.03
2023-04-18T13:37:46.979Z,100967.75
2023-04-18T13:39:52.466Z,100969.22
2023-04-18T13:41:57.631Z,100962.27
2023-04-18T13:44:02.868Z,100965.65
2023-04-18T13:46:08.091Z,100968.73
2023-04-18T13:48:16.384Z,100968.33
2023-04-18T13:50:21.995Z,100965.83
2023-04-18T13:52:27.508Z,100971.39
2023-04-18T13:54:32.707Z,100967.36
2023-04-18T13:56:37.789Z,100966.5
2023-04-18T13:58:42.880Z,100969.55
2023-04-18T14:00:50.977Z,100966.81
2023-04-18T14:02:56.442Z,100967.05
2023-04-18T14:05:02.259Z,100969.23
2023-04-18T14:07:07.864Z,100962.19
2023-04-18T14:09:13.667Z,100966.31
2023-04-18T14:11:19.015Z,100963.65
2023-04-18T14:13:24.033Z,100959.67
2023-04-18T14:15:29.347Z,100960.09
2023-04-18T14:17:34.928Z,100959.34
2023-04-18T14:19:40.180Z,100959.71
2023-04-18T14:21:45.129Z,100957.8
2023-04-18T14:23:50.218Z,100963.22
2023-04-18T14:25:55.308Z,100961.03
2023-04-18T14:28:00.367Z,100962.84
2023-04-18T14:30:05.534Z,100960.63
2023-04-18T14:32:10.595Z,100963.66
2023-04-18T14:34:15.618Z,100963.09
2023-04-18T14:36:20.659Z,100957.09
2023-04-18T14:38:25.737Z,100962.69
2023-04-18T14:40:33.940Z,100953.38
2023-04-18T14:42:39.181Z,100956.8
2023-04-18T14:44:44.275Z,100957.16
2023-04-18T14:46:49.463Z,100955.06
2023-04-18T14:48:54.623Z,100952
2023-04-18T14:50:59.738Z,100949.15
2023-04-18T14:53:04.801Z,100946
2023-04-18T14:55:10.099Z,100954.95
2023-04-18T14:57:15.157Z,100950.22
2023-04-18T14:59:20.908Z,100943.09
2023-04-18T15:01:26.591Z,100943.88
2023-04-18T15:03:32.269Z,100941.53
2023-04-18T15:05:37.740Z,100937.1
2023-04-18T15:07:42.814Z,100946.77
2023-04-18T15:09:47.959Z,100945.24
2023-04-18T15:11:53.182Z,100945.73
2023-04-18T15:13:58.275Z,100944.55
2023-04-18T15:16:03.554Z,100948.87
2023-04-18T15:18:08.771Z,100943.49
2023-04-18T15:20:14.041Z,100946.91
2023-04-18T15:22:19.121Z,100947.71
2023-04-18T15:24:24.206Z,100940.61
2023-04-18T15:26:31.047Z,100944.91
2023-04-18T15:28:38.087Z,100936.77
2023-04-18T15:30:43.171Z,100940.52
2023-04-18T15:32:48.462Z,100944.56
2023-04-18T15:34:53.640Z,100941.55
2023-04-18T15:36:58.815Z,100946.58
2023-04-18T15:39:03.888Z,100943.25
2023-04-18T15:41:08.978Z,100948.17
2023-04-18T15:43:14.020Z,100949.8
2023-04-18T15:45:19.089Z,100949.57
2023-04-18T15:47:24.364Z,100948.44
2023-04-18T15:49:29.481Z,100947.22
2023-04-18T15:51:34.659Z,100947.02
2023-04-18T15:53:39.806Z,100944.92
2023-04-18T15:55:44.915Z,100949.43
2023-04-18T15:57:50.064Z,100943.91
2023-04-18T15:59:55.253Z,100943.75
2023-04-18T16:02:00.787Z,100947.45
2023-04-18T16:04:06.195Z,100946.59
2023-04-18T16:06:11.613Z,100949.19
2023-04-18T16:08:16.706Z,100945.61
2023-04-18T16:10:21.743Z,100950.9
2023-04-18T16:12:26.835Z,100951.19
2023-04-18T16:14:31.887Z,100950.42
2023-04-18T16:16:36.902Z,100948.66
2023-04-18T16:18:41.972Z,100948.19
2023-04-18T16:20:47.045Z,100944.75
2023-04-18T16:22:52.116Z,100945.18
2023-04-18T16:24:57.165Z,100945.98
2023-04-18T16:27:02.325Z,100945.14
2023-04-18T16:29:07.446Z,100938.05
2023-04-18T16:31:12.671Z,100938.55
2023-04-18T16:33:18.155Z,100935.95
2023-04-18T16:35:23.456Z,100938.98
2023-04-18T16:37:28.568Z,100942.02
2023-04-18T16:39:33.623Z,100939.19
2023-04-18T16:41:38.983Z,100940.11
2023-04-18T16:43:44.123Z,100942.89
2023-04-18T16:45:49.191Z,100941.42
2023-04-18T16:47:54.452Z,100941.48
2023-04-18T16:49:59.610Z,100941.14
2023-04-18T16:52:04.855Z,100944.81
2023-04-18T16:54:09.956Z,100944.96
2023-04-18T16:56:15.436Z,100945.43
2023-04-18T16:58:20.507Z,100946.16
2023-04-18T17:00:25.552Z,100949.91
2023-04-18T17:02:31.240Z,100944.48
2023-04-18T17:04:36.823Z,100946.53
2023-04-18T17:06:42.089Z,100944.63
2023-04-18T17:08:47.187Z,100944.66
2023-04-18T17:10:52.234Z,100942.04
2023-04-18T17:12:57.275Z,100940.17
2023-04-18T17:15:02.349Z,100942.33
2023-04-18T17:17:07.397Z,100940.41
2023-04-18T17:19:12.664Z,100946.16
2023-04-18T17:21:18.530Z,100947.79
2023-04-18T17:23:23.610Z,100946.52
2023-04-18T17:25:28.788Z,100957.22
2023-04-18T17:27:33.821Z,100955.34
2023-04-18T17:29:38.906Z,100957.63
2023-04-18T17:31:44.059Z,100960.02
2023-04-18T17:33:49.364Z,100961.4
2023-04-18T17:35:54.452Z,100962.48
2023-04-18T17:37:59.583Z,100963.61
2023-04-18T17:40:04.783Z,100962
2023-04-18T17:42:09.855Z,100960.22
2023-04-18T17:44:15.006Z,100959.5
2023-04-18T17:46:20.181Z,100963.04
2023-04-18T17:48:25.452Z,100963.34
2023-04-18T17:50:30.521Z,100961.53
2023-04-18T17:52:35.663Z,100963.63
2023-04-18T17:54:40.786Z,100969.44
2023-04-18T17:56:45.910Z,100958.14
2023-04-18T17:58:50.962Z,100960.28
2023-04-18T18:00:58.648Z,100957.78
2023-04-18T18:03:04.230Z,100961.64
2023-04-18T18:05:09.707Z,100964.01
2023-04-18T18:07:14.738Z,100961.73
2023-04-18T18:09:19.795Z,100961.95
2023-04-18T18:11:24.926Z,100964.66
2023-04-18T18:13:29.930Z,100967.69
2023-04-18T18:15:35.108Z,100967.18
2023-04-18T18:17:40.222Z,100963.47
2023-04-18T18:19:45.263Z,100967.9
2023-04-18T18:21:50.248Z,100968.06
2023-04-18T18:23:55.229Z,100965.23
2023-04-18T18:26:00.321Z,100965.66
2023-04-18T18:28:05.520Z,100969.2
2023-04-18T18:30:10.875Z,100966.42
2023-04-18T18:32:16.046Z,100967.1
2023-04-18T18:34:21.237Z,100963.02
2023-04-18T18:36:26.381Z,100964.52
2023-04-18T18:38:31.544Z,100962.96
2023-04-18T18:40:36.678Z,100964.73
2023-04-18T18:42:41.738Z,100961.38
2023-04-18T18:44:46.837Z,100964.05
2023-04-18T18:46:52.178Z,100961.16
2023-04-18T18:48:57.341Z,100960.76
2023-04-18T18:51:02.418Z,100963.75
2023-04-18T18:53:07.534Z,100958.17
2023-04-18T18:55:12.708Z,100959.58
2023-04-18T18:57:17.797Z,100964.4
2023-04-18T18:59:22.857Z,100959.84
2023-04-18T19:01:28.032Z,100961.12
2023-04-18T19:03:33.500Z,100958.55
2023-04-18T19:05:38.937Z,100957.84
2023-04-18T19:07:43.945Z,100953.91
2023-04-18T19:09:49.031Z,100955.75
2023-04-18T19:11:54.110Z,100957.92
2023-04-18T19:13:59.190Z,100955.22
2023-04-18T19:16:04.331Z,100953.33
2023-04-18T19:18:09.578Z,100952.2
2023-04-18T19:20:14.697Z,100954.83
2023-04-18T19:22:19.764Z,100950.88
2023-04-18T19:24:24.947Z,100951.22
2023-04-18T19:26:30.071Z,100949.09
2023-04-18T19:28:35.185Z,100956.05
2023-04-18T19:30:40.256Z,100949.17
2023-04-18T19:32:45.392Z,100952.64
2023-04-18T19:34:50.557Z,100950.39
2023-04-18T19:36:55.618Z,100950.41
2023-04-18T19:39:00.689Z,100944.59
2023-04-18T19:41:05.922Z,100946.66
2023-04-18T19:43:11.043Z,100945.58
2023-04-18T19:45:16.185Z,100943.28
2023-04-18T19:47:21.354Z,100940.61
2023-04-18T19:49:26.592Z,100946.25
2023-04-18T19:51:31.679Z,100943.06
2023-04-18T19:53:36.769Z,100942.66
2023-04-18T19:55:41.843Z,100942.08
2023-04-18T19:57:46.986Z,100940.47
2023-04-18T19:59:52.044Z,100938.91
2023-04-18T20:02:02.192Z,100940.98
2023-04-18T20:04:10.789Z,100938.25
2023-04-18T20:06:16.168Z,100937.1
2023-04-18T20:08:21.303Z,100938.63
2023-04-18T20:10:26.366Z,100935.74
2023-04-18T20:12:31.449Z,100934.09
2023-04-18T20:14:36.595Z,100934.16
2023-04-18T20:16:41.866Z,100929.72
2023-04-18T20:18:47.124Z,100929.14
2023-04-18T20:20:52.210Z,100929.48
2023-04-18T20:22:57.364Z,100929.56
2023-04-18T20:25:02.505Z,100930.41
2023-04-18T20:27:07.554Z,100924.12
2023-04-18T20:29:12.857Z,100928.67
2023-04-18T20:31:18.538Z,100926.17
2023-04-18T20:33:23.732Z,100929.02
2023-04-18T20:35:28.829Z,100926.25
2023-04-18T20:37:33.903Z,100925.33
2023-04-18T20:39:39.070Z,100923.34
2023-04-18T20:41:44.219Z,100920.23
2023-04-18T20:43:49.298Z,100921.97
2023-04-18T20:45:54.585Z,100924.4
2023-04-18T20:47:59.916Z,100922.88
2023-04-18T20:50:05.067Z,100919.66
2023-04-18T20:52:10.334Z,100919.31
2023-04-18T20:54:16.270Z,100909.69
2023-04-18T20:56:21.564Z,100913.18
2023-04-18T20:58:26.637Z,100913.3
2023-04-18T21:00:31.682Z,100909.36
2023-04-18T21:02:36.921Z,100913.14
2023-04-18T21:04:42.381Z,100906.31
2023-04-18T21:06:47.661Z,100905.32
2023-04-18T21:08:52.687Z,100907.72
2023-04-18T21:10:57.782Z,100909.24
2023-04-18T21:13:02.961Z,100904.29
2023-04-18T21:15:08.067Z,100900.38
2023-04-18T21:17:13.148Z,100898.33
2023-04-18T21:19:18.274Z,100900.15
2023-04-18T21:21:23.325Z,100894.66
2023-04-18T21:23:28.402Z,100894.86
2023-04-18T21:25:33.470Z,100891.15
2023-04-18T21:27:38.569Z,100888.7
2023-04-18T21:29:43.657Z,100889.49
2023-04-18T21:31:48.847Z,100892.11
2023-04-18T21:33:54.058Z,100887.77
2023-04-18T21:35:59.116Z,100888.76
2023-04-18T21:38:04.148Z,100884.66
2023-04-18T21:40:09.289Z,100888.41
2023-04-18T21:42:14.416Z,100883.86
2023-04-18T21:44:19.764Z,100880.2
2023-04-18T21:46:25.093Z,100883.11
2023-04-18T21:48:30.487Z,100879.42
2023-04-18T21:50:35.528Z,100879.05
2023-04-18T21:52:40.592Z,100877.15
2023-04-18T21:54:45.613Z,100877.58
2023-04-18T21:56:50.661Z,100877.14
2023-04-18T21:58:55.744Z,100873.52
2023-04-18T22:01:00.974Z,100872.5
2023-04-18T22:03:06.414Z,100874.31
2023-04-18T22:05:11.961Z,100872.1
2023-04-18T22:07:17.089Z,100871.38
2023-04-18T22:09:22.147Z,100867.18
2023-04-18T22:11:27.198Z,100865.07
2023-04-18T22:13:32.237Z,100860.39
2023-04-18T22:15:37.248Z,100857.1
2023-04-18T22:17:42.361Z,100854.34
2023-04-18T22:19:47.533Z,100852.27
2023-04-18T22:21:52.615Z,100848.7
2023-04-18T22:23:57.685Z,100847.88
2023-04-18T22:26:02.745Z,100846.2
2023-04-18T22:28:07.815Z,100845.16
2023-04-18T22:30:12.914Z,100846.7
2023-04-18T22:32:18.137Z,100844.34
2023-04-18T22:34:23.358Z,100842.4
2023-04-18T22:36:28.373Z,100838.55
2023-04-18T22:38:33.419Z,100840.26
2023-04-18T22:40:38.563Z,100840.37
2023-04-18T22:42:43.593Z,100837.02
2023-04-18T22:44:48.622Z,100834.33
2023-04-18T22:46:53.611Z,100833.55
2023-04-18T22:48:58.805Z,100829.62
2023-04-18T22:51:03.846Z,100828.77
2023-04-18T22:53:09.026Z,100826.31
2023-04-18T22:55:14.101Z,100824.36
2023-04-18T22:57:19.154Z,100817.9
2023-04-18T22:59:24.187Z,100822.34
2023-04-18T23:01:29.349Z,100818.07
2023-04-18T23:03:34.855Z,100812.61
2023-04-18T23:05:40.230Z,100812.77
2023-04-18T23:07:45.434Z,100813.55
2023-04-18T23:09:50.516Z,100810.89
2023-04-18T23:11:55.585Z,100811.23
2023-04-18T23:14:00.636Z,100806.27
2023-04-18T23:16:05.913Z,100805.22
2023-04-18T23:18:11.066Z,100801.95
2023-04-18T23:20:16.211Z,100799.87
2023-04-18T23:22:21.245Z,100795.72
2023-04-18T23:24:26.345Z,100793.42
2023-04-18T23:26:31.394Z,100787.12
2023-04-18T23:28:36.716Z,100789.09
2023-04-18T23:30:41.844Z,100787.77
2023-04-18T23:32:46.965Z,100784.63
2023-04-18T23:34:52.137Z,100782.14
2023-04-18T23:36:57.175Z,100782.81
2023-04-18T23:39:02.207Z,100777
2023-04-18T23:41:07.266Z,100775.73
2023-04-18T23:43:12.306Z,100773.04
2023-04-18T23:45:17.360Z,100764.36
2023-04-18T23:47:22.584Z,100765.89
2023-04-18T23:49:27.888Z,100763.3
2023-04-18T23:51:33.117Z,100764.2
2023-04-18T23:53:38.152Z,100768.81
2023-04-18T23:55:43.283Z,100763.55
2023-04-18T23:57:48.310Z,100766.47